Time;durP1;ratioP1;P1;durP2;ratioP2;P2;SDS_P1;SDS_P2;PMS_P1;PMS_P2;Temp;Humidity;BMP_temperature;BMP_pressure;BME280_temperature;BME280_humidity;BME280_pressure;Samples;Min_cycle;Max_cycle;Signal;HPM_P1;HPM_P2
2023/04/18 00:02:06;;;;;;;14.55;7.85;;;;;;;12.14;43.55;150340.41;5054465;28;20018;-69
2023/04/18 00:04:32;;;;;;;16.45;7.18;;;;;;;12.14;44.75;150340.41;5049460;28;20104;-70
2023/04/18 00:06:58;;;;;;;12.45;7.10;;;;;;;12.12;44.30;150335.28;5063484;28;20036;-68
2023/04/18 00:09:24;;;;;;;17.50;7.63;;;;;;;12.11;44.16;150333.97;5045181;28;20029;-69
2023/04/18 00:11:50;;;;;;;13.15;7.93;;;;;;;12.07;44.83;150323.69;5044650;28;20026;-69
2023/04/18 00:14:17;;;;;;;25.00;9.30;;;;;;;12.00;44.78;150307.03;5044669;28;20033;-69
2023/04/18 00:16:43;;;;;;;21.60;8.48;;;;;;;11.99;44.45;150304.47;5051734;28;20027;-68
2023/04/18 00:19:08;;;;;;;16.67;7.47;;;;;;;11.98;44.88;150301.88;5062137;28;20021;-68
2023/04/18 00:21:34;;;;;;;13.07;7.63;;;;;;;12.01;45.28;150308.31;5044844;28;20033;-68
2023/04/18 00:24:00;;;;;;;19.05;7.93;;;;;;;12.02;45.22;150310.88;5062207;28;20206;-68
2023/04/18 00:26:27;;;;;;;19.17;6.72;;;;;;;11.98;45.67;150301.88;5051267;28;20033;-69
2023/04/18 00:28:52;;;;;;;12.57;6.55;;;;;;;12.01;45.75;150308.31;5044338;28;20049;-69
2023/04/18 00:31:18;;;;;;;16.40;6.63;;;;;;;12.00;45.29;150305.72;5047472;28;20068;-69
2023/04/18 00:33:43;;;;;;;13.60;6.47;;;;;;;11.98;45.50;150301.88;5064400;28;20039;-68
2023/04/18 00:36:09;;;;;;;12.88;6.18;;;;;;;11.97;46.01;150298.03;5064219;28;20033;-69
2023/04/18 00:38:35;;;;;;;12.77;6.43;;;;;;;11.95;45.38;150294.19;5064269;28;20028;-68
2023/04/18 00:41:01;;;;;;;12.85;6.03;;;;;;;11.92;45.10;150286.44;5054444;28;20042;-70
2023/04/18 00:43:26;;;;;;;16.45;6.22;;;;;;;11.95;44.79;150294.19;5044515;28;20250;-69
2023/04/18 00:45:52;;;;;;;19.17;6.60;;;;;;;11.82;44.83;150262.03;5044358;28;20029;-69
2023/04/18 00:48:19;;;;;;;15.23;6.13;;;;;;;11.88;45.19;150276.16;5064290;28;20116;-69
2023/04/18 00:50:45;;;;;;;15.75;6.80;;;;;;;11.97;45.89;150299.34;5048463;28;20242;-69
2023/04/18 00:53:12;;;;;;;11.63;5.72;;;;;;;11.98;46.50;150300.63;5053715;28;20041;-69
2023/04/18 00:55:37;;;;;;;13.43;6.75;;;;;;;11.92;44.88;150286.44;5059593;28;20043;-68
2023/04/18 00:58:03;;;;;;;16.92;6.75;;;;;;;11.94;45.34;150291.59;5045346;28;20040;-70
2023/04/18 01:00:29;;;;;;;14.05;6.50;;;;;;;11.91;46.47;150283.88;5064094;28;20029;-69
2023/04/18 01:02:54;;;;;;;14.02;6.50;;;;;;;11.96;45.54;150296.78;5060608;28;20305;-69
2023/04/18 01:05:22;;;;;;;14.18;6.72;;;;;;;11.90;46.81;150282.59;5051641;28;20025;-70
2023/04/18 01:07:48;;;;;;;19.98;7.05;;;;;;;11.94;46.44;150290.34;5050262;28;20021;-67
2023/04/18 01:10:14;;;;;;;13.98;5.43;;;;;;;11.91;45.76;150285.19;5060802;28;20044;-67
2023/04/18 01:12:40;;;;;;;14.50;6.95;;;;;;;11.77;46.99;150249.19;5043560;28;20069;-67
2023/04/18 01:15:06;;;;;;;15.50;6.68;;;;;;;11.95;46.90;150292.91;5043570;28;20022;-68
2023/04/18 01:17:37;;;;;;;12.38;6.20;;;;;;;11.85;46.41;150268.47;5057107;28;20025;-70
2023/04/18 01:20:05;;;;;;;12.85;6.13;;;;;;;11.97;46.52;150298.03;5062958;28;20048;-70
2023/04/18 01:22:32;;;;;;;14.88;6.65;;;;;;;11.95;47.06;150294.19;5058239;28;20036;-69
2023/04/18 01:24:58;;;;;;;12.43;5.95;;;;;;;11.96;46.79;150295.50;5043420;28;20049;-71
2023/04/18 01:27:24;;;;;;;14.77;7.63;;;;;;;11.90;46.54;150281.34;5043536;28;20036;-68
2023/04/18 01:29:49;;;;;;;13.38;6.82;;;;;;;11.89;46.01;150278.75;5050689;28;20439;-69
2023/04/18 01:32:16;;;;;;;12.10;5.88;;;;;;;11.97;46.15;150298.03;5044012;28;20075;-69
2023/04/18 01:34:42;;;;;;;14.68;7.07;;;;;;;11.86;47.11;150272.31;5047766;28;20029;-69
2023/04/18 01:37:08;;;;;;;17.27;7.20;;;;;;;11.95;47.08;150294.19;5043224;28;20029;-69
2023/04/18 01:39:33;;;;;;;16.40;6.65;;;;;;;11.86;46.33;150271.06;5043501;28;20032;-69
2023/04/18 01:42:00;;;;;;;15.20;6.55;;;;;;;11.91;46.62;150285.19;5055113;28;20313;-69
2023/04/18 01:44:26;;;;;;;13.85;7.00;;;;;;;11.91;47.46;150283.88;5050759;28;20084;-70
2023/04/18 01:46:52;;;;;;;17.55;7.25;;;;;;;11.89;46.64;150278.75;5043099;28;20175;-70
2023/04/18 01:49:17;;;;;;;14.23;7.57;;;;;;;11.81;47.62;150259.47;5043155;28;20062;-69
2023/04/18 01:51:43;;;;;;;12.52;6.53;;;;;;;11.87;48.15;150273.59;5041415;28;20021;-69
2023/04/18 01:54:08;;;;;;;19.25;8.50;;;;;;;11.91;47.12;150283.88;5061654;28;20048;-69
2023/04/18 01:56:34;;;;;;;25.55;9.40;;;;;;;11.90;47.40;150281.34;5049512;28;20298;-68
2023/04/18 01:59:00;;;;;;;19.08;9.32;;;;;;;11.96;47.21;150295.50;5051606;28;20317;-68
2023/04/18 02:01:25;;;;;;;18.65;9.90;;;;;;;11.93;46.94;150289.03;5059015;28;20017;-67
2023/04/18 02:03:51;;;;;;;21.13;10.07;;;;;;;11.89;46.38;150280.00;5042959;28;20033;-68
2023/04/18 02:06:16;;;;;;;20.60;10.80;;;;;;;11.97;46.55;150299.34;5062208;28;20031;-69
2023/04/18 02:08:42;;;;;;;28.63;11.57;;;;;;;11.98;46.44;150300.63;5048213;28;20040;-70
2023/04/18 02:11:08;;;;;;;25.77;10.68;;;;;;;11.97;47.07;150299.34;5052710;28;20078;-69
2023/04/18 02:13:33;;;;;;;28.45;12.00;;;;;;;11.94;47.40;150291.59;5057751;28;20025;-70
2023/04/18 02:15:59;;;;;;;23.98;10.75;;;;;;;11.94;47.78;150290.34;5043104;28;20032;-68
2023/04/18 02:18:44;;;;;;;26.15;11.20;;;;;;;12.02;48.23;150310.88;5062043;28;20306;-69
2023/04/18 02:21:10;;;;;;;19.88;10.93;;;;;;;12.00;47.47;150307.03;5044363;28;20092;-68
2023/04/18 02:23:36;;;;;;;23.60;11.82;;;;;;;11.96;47.67;150295.50;5056391;28;20021;-69
2023/04/18 02:26:01;;;;;;;25.23;11.02;;;;;;;11.95;47.48;150292.91;5053885;28;20321;-70
2023/04/18 02:28:27;;;;;;;23.52;11.70;;;;;;;11.89;47.71;150280.00;5042814;28;20029;-69
2023/04/18 02:30:52;;;;;;;22.60;11.70;;;;;;;11.85;48.26;150269.75;5042492;28;20309;-67
2023/04/18 02:33:18;;;;;;;23.83;12.52;;;;;;;11.84;47.96;150267.22;5060637;28;20032;-67
2023/04/18 02:35:44;;;;;;;21.83;12.00;;;;;;;11.78;48.96;150251.78;5048252;28;20040;-68
2023/04/18 02:38:09;;;;;;;19.50;12.30;;;;;;;11.90;48.40;150282.59;5052396;28;20029;-68
2023/04/18 02:40:35;;;;;;;17.25;10.85;;;;;;;11.95;48.10;150292.91;5057648;28;20186;-69
2023/04/18 02:43:01;;;;;;;21.85;10.65;;;;;;;11.94;48.60;150290.34;5042709;28;20087;-68
2023/04/18 02:45:27;;;;;;;19.88;10.07;;;;;;;11.90;48.36;150282.59;5062922;28;20100;-68
2023/04/18 02:47:52;;;;;;;18.63;10.80;;;;;;;11.95;49.34;150294.19;5061354;28;20024;-69
2023/04/18 02:50:18;;;;;;;14.70;9.93;;;;;;;11.92;48.72;150286.44;5062788;28;20039;-68
2023/04/18 02:52:43;;;;;;;23.25;11.55;;;;;;;11.96;48.47;150296.78;5057709;28;20112;-69
2023/04/18 02:55:09;;;;;;;15.10;10.55;;;;;;;11.98;48.25;150300.63;5043623;28;20033;-68
2023/04/18 02:57:34;;;;;;;16.20;9.88;;;;;;;11.97;48.31;150299.34;5062769;28;20028;-69
2023/04/18 03:00:00;;;;;;;17.20;9.68;;;;;;;11.98;48.85;150300.63;5057877;28;20049;-69
2023/04/18 03:02:26;;;;;;;20.02;11.15;;;;;;;11.89;48.62;150278.75;5042289;28;20044;-68
2023/04/18 03:04:51;;;;;;;23.05;11.80;;;;;;;11.96;49.09;150296.78;5045688;28;20054;-69
2023/04/18 03:07:17;;;;;;;20.90;11.45;;;;;;;11.90;48.66;150281.34;5048505;28;20088;-68
2023/04/18 03:09:42;;;;;;;17.65;11.02;;;;;;;11.98;48.83;150301.88;5065958;28;20036;-67
2023/04/18 03:12:08;;;;;;;19.52;11.63;;;;;;;11.98;48.78;150301.88;5064772;28;20221;-68
2023/04/18 03:14:33;;;;;;;19.55;11.32;;;;;;;12.04;48.09;150316.00;5065737;28;20044;-68
2023/04/18 03:16:59;;;;;;;17.75;11.15;;;;;;;11.95;49.33;150292.91;5057766;28;20029;-69
2023/04/18 03:19:25;;;;;;;19.48;11.63;;;;;;;12.06;49.42;150321.16;5049045;28;20036;-68
2023/04/18 03:21:50;;;;;;;14.57;10.80;;;;;;;12.11;49.43;150333.97;5054695;28;20033;-69
2023/04/18 03:24:16;;;;;;;19.70;10.88;;;;;;;12.08;49.33;150327.59;5064170;28;20222;-68
2023/04/18 03:26:41;;;;;;;21.65;12.10;;;;;;;12.14;48.86;150341.72;5051739;28;20056;-69
2023/04/18 03:29:07;;;;;;;23.20;11.40;;;;;;;12.12;49.62;150336.56;5051956;28;20044;-69
2023/04/18 03:31:33;;;;;;;17.95;10.98;;;;;;;12.17;49.19;150348.09;5047579;28;20061;-68
2023/04/18 03:33:58;;;;;;;19.65;10.98;;;;;;;12.13;48.51;150339.13;5055886;28;20025;-69
2023/04/18 03:36:24;;;;;;;18.65;11.70;;;;;;;12.19;49.70;150354.53;5030583;28;20078;-69
2023/04/18 03:38:49;;;;;;;18.10;11.45;;;;;;;12.19;48.74;150354.53;5060777;28;20333;-68
2023/04/18 03:41:15;;;;;;;24.05;12.10;;;;;;;12.15;49.09;150343.00;5045562;28;20029;-69
2023/04/18 03:43:41;;;;;;;19.73;10.95;;;;;;;12.19;49.44;150354.53;5045415;28;20218;-69
2023/04/18 03:46:06;;;;;;;26.30;11.88;;;;;;;12.24;49.19;150366.06;5045277;28;20036;-69
2023/04/18 03:48:35;;;;;;;24.98;12.02;;;;;;;12.33;48.72;150387.94;5054891;28;20025;-69
2023/04/18 03:51:01;;;;;;;18.35;11.75;;;;;;;12.32;49.01;150386.63;5055774;28;20029;-68
2023/04/18 03:53:27;;;;;;;19.05;11.00;;;;;;;12.35;48.99;150393.06;5045425;28;20334;-69
2023/04/18 03:55:53;;;;;;;19.50;10.98;;;;;;;12.43;48.89;150414.88;5064755;28;20045;-69
2023/04/18 03:58:22;;;;;;;24.27;11.63;;;;;;;12.42;48.54;150412.31;5049119;28;20037;-69
2023/04/18 04:00:49;;;;;;;26.80;11.63;;;;;;;12.55;48.51;150444.41;5054009;28;20206;-68
2023/04/18 04:03:15;;;;;;;18.55;12.57;;;;;;;12.63;48.50;150463.72;5052329;28;20117;-67
2023/04/18 04:05:40;;;;;;;20.98;12.10;;;;;;;12.67;48.81;150472.66;5062611;28;20049;-67
2023/04/18 04:08:06;;;;;;;22.85;12.35;;;;;;;12.74;47.81;150490.66;5054327;28;20245;-69
2023/04/18 04:10:32;;;;;;;25.02;13.10;;;;;;;12.70;48.95;150481.69;5047065;28;20218;-68
2023/04/18 04:12:57;;;;;;;21.08;13.02;;;;;;;12.83;48.01;150513.81;5057527;28;20021;-69
2023/04/18 04:15:23;;;;;;;19.52;12.32;;;;;;;12.89;47.43;150529.19;5060003;28;20033;-68
2023/04/18 04:17:49;;;;;;;27.13;12.60;;;;;;;12.77;47.65;150498.41;5044500;28;20056;-70
2023/04/18 04:20:21;;;;;;;22.45;11.88;;;;;;;12.91;47.64;150533.06;5044696;28;20036;-69
2023/04/18 04:22:47;;;;;;;;;;;;;;;12.89;47.86;150527.94;5044896;28;20041;-68
2023/04/18 04:25:13;;;;;;;22.92;11.73;;;;;;;12.95;47.42;150544.66;5059223;28;19940;-69
2023/04/18 04:27:38;;;;;;;20.58;11.90;;;;;;;12.97;47.44;150548.50;5054065;28;20100;-71
2023/04/18 04:30:05;;;;;;;23.52;13.18;;;;;;;12.98;47.65;150549.75;5044223;28;20081;-68
2023/04/18 04:32:31;;;;;;;22.25;12.70;;;;;;;13.01;47.31;150557.47;5057567;28;20060;-70
2023/04/18 04:34:58;;;;;;;20.90;11.20;;;;;;;13.10;47.66;150580.63;5056744;28;20335;-67
2023/04/18 04:37:25;;;;;;;21.05;12.02;;;;;;;12.99;46.45;150552.34;5064194;28;20029;-68
2023/04/18 04:39:51;;;;;;;24.27;11.70;;;;;;;13.05;46.96;150569.03;5052173;28;20037;-68
2023/04/18 04:42:18;;;;;;;23.52;12.95;;;;;;;13.12;46.71;150585.72;5044084;28;20099;-68
2023/04/18 04:44:44;;;;;;;30.88;12.40;;;;;;;13.02;46.01;150560.03;5046336;28;20029;-68
2023/04/18 04:47:10;;;;;;;27.05;12.90;;;;;;;13.06;46.95;150570.34;5064195;28;20104;-68
2023/04/18 04:49:35;;;;;;;22.17;12.73;;;;;;;13.16;46.79;150594.75;5046309;28;20195;-70
2023/04/18 04:52:01;;;;;;;26.35;12.77;;;;;;;13.07;47.37;150572.91;5056107;28;20229;-70
2023/04/18 04:54:27;;;;;;;23.90;12.20;;;;;;;13.17;47.25;150598.59;5059194;28;20033;-70
2023/04/18 04:56:53;;;;;;;25.90;12.52;;;;;;;13.20;47.26;150605.03;5047194;28;20035;-68
2023/04/18 04:59:18;;;;;;;22.83;12.82;;;;;;;13.22;45.82;150611.41;5063948;28;20025;-67
2023/04/18 05:01:45;;;;;;;21.80;11.45;;;;;;;13.25;46.34;150617.84;5044638;28;20230;-66
2023/04/18 05:04:11;;;;;;;18.75;11.60;;;;;;;13.18;45.74;150601.19;5057008;28;20095;-67
2023/04/18 05:06:37;;;;;;;19.08;12.55;;;;;;;13.25;45.93;150619.19;5053838;28;20245;-68
2023/04/18 05:09:02;;;;;;;21.55;12.20;;;;;;;13.35;45.61;150642.34;5051113;28;20041;-67
2023/04/18 05:11:28;;;;;;;21.90;11.32;;;;;;;13.34;45.93;150641.00;5043581;28;20409;-69
2023/04/18 05:13:53;;;;;;;30.05;12.68;;;;;;;13.02;45.91;150560.03;5063317;28;20013;-65
2023/04/18 05:16:19;;;;;;;22.42;11.98;;;;;;;12.99;46.75;150553.63;5048015;28;20048;-66
2023/04/18 05:18:45;;;;;;;28.17;12.55;;;;;;;12.85;46.17;150518.91;5043420;28;20244;-68
2023/04/18 05:21:10;;;;;;;21.83;12.95;;;;;;;12.94;46.78;150542.06;5049206;28;20028;-66
2023/04/18 05:23:36;;;;;;;20.85;11.55;;;;;;;12.98;45.89;150551.03;5063453;28;20052;-67
2023/04/18 05:26:14;;;;;;;21.17;12.05;;;;;;;13.10;46.13;150581.88;5062591;28;20249;-67
2023/04/18 05:28:40;;;;;;;28.33;12.68;;;;;;;13.15;45.95;150592.16;5058685;28;20097;-66
2023/04/18 05:31:05;;;;;;;20.60;13.57;;;;;;;12.92;46.27;150535.63;5053808;28;20029;-67
2023/04/18 05:33:31;;;;;;;20.42;12.80;;;;;;;12.78;46.16;150500.94;5051625;28;20067;-67
2023/04/18 05:35:57;;;;;;;20.50;12.88;;;;;;;12.59;46.62;150454.69;5043284;28;20037;-67
2023/04/18 05:38:23;;;;;;;25.48;13.82;;;;;;;12.48;47.08;150426.44;5043211;28;20059;-66
2023/04/18 05:40:54;;;;;;;21.80;12.73;;;;;;;12.44;46.29;150416.16;5062006;28;20032;-68
2023/04/18 05:43:20;;;;;;;21.63;12.63;;;;;;;12.53;46.93;150439.28;5049140;28;20029;-69
2023/04/18 05:45:46;;;;;;;21.05;12.77;;;;;;;12.32;47.36;150385.38;5054600;28;20062;-67
2023/04/18 05:48:12;;;;;;;27.02;13.43;;;;;;;12.33;46.57;150389.22;5057189;28;20359;-67
2023/04/18 05:50:38;;;;;;;21.65;13.30;;;;;;;12.15;47.41;150344.25;5044000;28;20037;-68
2023/04/18 05:53:04;;;;;;;25.13;13.27;;;;;;;12.41;47.07;150408.47;5062739;28;20076;-68
2023/04/18 05:55:29;;;;;;;23.23;13.57;;;;;;;12.37;47.15;150398.19;5046415;28;20033;-68
2023/04/18 05:57:55;;;;;;;24.58;14.20;;;;;;;12.53;45.85;150439.28;5053826;28;20016;-68
2023/04/18 06:00:20;;;;;;;22.45;14.45;;;;;;;12.59;46.35;150454.69;5057996;28;20040;-67
2023/04/18 06:02:46;;;;;;;21.05;13.57;;;;;;;12.57;45.91;150448.31;5075632;28;20102;-69
2023/04/18 06:05:12;;;;;;;19.63;14.23;;;;;;;12.28;46.25;150375.09;5063032;28;20029;-69
2023/04/18 06:07:38;;;;;;;20.75;13.32;;;;;;;12.56;46.35;150445.72;5061477;28;20040;-68
2023/04/18 06:10:07;;;;;;;21.13;13.63;;;;;;;12.89;45.73;150529.19;5061060;28;20221;-70
2023/04/18 06:12:33;;;;;;;21.83;13.18;;;;;;;13.08;44.50;150575.44;5062158;28;20052;-70
2023/04/18 06:14:59;;;;;;;23.10;13.85;;;;;;;13.02;45.15;150560.03;5061209;28;20028;-70
2023/04/18 06:17:25;;;;;;;27.45;13.73;;;;;;;12.91;44.75;150534.38;5062837;28;20092;-69
2023/04/18 06:19:50;;;;;;;24.27;14.00;;;;;;;13.28;43.49;150626.88;5043529;28;20029;-67
2023/04/18 06:22:16;;;;;;;26.85;13.63;;;;;;;13.20;44.85;150606.31;5042797;28;20029;-70
2023/04/18 06:24:41;;;;;;;26.40;13.80;;;;;;;13.12;44.55;150587.06;5042608;28;20037;-69
2023/04/18 06:27:07;;;;;;;20.33;14.45;;;;;;;13.58;43.68;150701.47;5047202;28;20364;-69
2023/04/18 06:29:33;;;;;;;23.10;13.55;;;;;;;14.01;42.30;150808.16;5062845;28;20068;-69
2023/04/18 06:31:58;;;;;;;20.42;13.40;;;;;;;13.94;41.50;150791.44;5051996;28;20028;-70
2023/04/18 06:34:24;;;;;;;20.52;13.60;;;;;;;14.45;42.26;150917.44;5060969;28;20031;-69
2023/04/18 06:36:51;;;;;;;23.08;13.45;;;;;;;14.82;40.89;151011.44;5058479;28;20021;-70
2023/04/18 06:39:16;;;;;;;20.77;14.40;;;;;;;15.44;40.39;151165.81;5062150;28;20021;-70
2023/04/18 06:41:42;;;;;;;24.23;13.75;;;;;;;15.70;39.57;151231.50;5065305;28;20029;-70
2023/04/18 06:44:08;;;;;;;24.75;13.50;;;;;;;15.99;38.79;151302.31;5046612;28;20306;-71
2023/04/18 06:46:33;;;;;;;26.20;13.18;;;;;;;14.72;40.67;150984.38;5061695;28;20024;-70
2023/04/18 06:48:59;;;;;;;21.40;12.85;;;;;;;14.81;40.29;151007.56;5054848;28;20148;-70
2023/04/18 06:51:25;;;;;;;28.95;13.80;;;;;;;15.18;39.52;151101.47;5048421;28;20025;-72
2023/04/18 06:53:54;;;;;;;21.92;13.63;;;;;;;15.36;39.85;151145.22;5057079;28;20087;-71
2023/04/18 06:56:20;;;;;;;20.83;12.95;;;;;;;16.18;38.91;151351.28;5046419;28;20401;-71
2023/04/18 06:58:46;;;;;;;17.65;12.45;;;;;;;16.72;37.86;151486.50;5063128;28;20063;-73
2023/04/18 07:01:12;;;;;;;20.48;13.15;;;;;;;16.30;37.20;151380.88;5058667;28;20070;-72
2023/04/18 07:03:38;;;;;;;24.30;13.35;;;;;;;16.42;38.19;151410.53;5057630;28;20017;-73
2023/04/18 07:06:04;;;;;;;21.45;12.13;;;;;;;17.75;36.37;151743.03;5050091;28;20025;-73
2023/04/18 07:08:30;;;;;;;19.25;13.75;;;;;;;16.28;37.28;151374.47;5066457;28;20360;-73
2023/04/18 07:10:56;;;;;;;21.63;14.70;;;;;;;16.39;37.10;151402.81;5046615;28;20045;-72
2023/04/18 07:13:21;;;;;;;29.02;16.33;;;;;;;16.37;37.01;151397.63;5060610;28;20036;-73
2023/04/18 07:15:47;;;;;;;22.85;14.90;;;;;;;16.11;36.91;151331.97;5055813;28;20033;-73
2023/04/18 07:18:12;;;;;;;19.38;13.68;;;;;;;16.31;38.00;151382.19;5045753;28;20025;-71
2023/04/18 07:20:39;;;;;;;27.80;14.45;;;;;;;15.70;38.23;151231.50;5045730;28;20033;-73
2023/04/18 07:23:05;;;;;;;29.00;14.30;;;;;;;15.52;38.77;151186.44;5057333;28;20037;-71
2023/04/18 07:25:30;;;;;;;29.20;14.38;;;;;;;15.51;38.58;151182.56;5050209;28;20328;-72
2023/04/18 07:27:56;;;;;;;22.58;13.20;;;;;;;15.73;38.11;151237.91;5045807;28;20202;-72
2023/04/18 07:30:22;;;;;;;20.98;12.85;;;;;;;15.90;38.89;151280.44;5051797;28;20278;-71
2023/04/18 07:32:48;;;;;;;20.60;13.88;;;;;;;16.46;37.62;151419.53;5048890;28;20061;-73
2023/04/18 07:35:14;;;;;;;27.55;14.45;;;;;;;16.49;37.12;151428.56;5045293;28;20075;-73
2023/04/18 07:37:39;;;;;;;21.52;13.68;;;;;;;16.23;37.49;151362.84;5061911;28;20021;-71
2023/04/18 07:40:05;;;;;;;22.48;13.45;;;;;;;16.48;37.65;151425.97;5053514;28;20278;-72
2023/04/18 07:42:31;;;;;;;23.63;13.90;;;;;;;16.26;37.21;151370.63;5045192;28;20071;-71
2023/04/18 07:44:57;;;;;;;24.33;13.25;;;;;;;16.09;37.76;151326.78;5047680;28;20029;-71
2023/04/18 07:47:25;;;;;;;18.63;13.13;;;;;;;16.13;38.60;151337.09;5055037;28;20024;-72
2023/04/18 07:49:51;;;;;;;22.02;12.48;;;;;;;16.29;37.68;151377.00;5062636;28;20036;-71
2023/04/18 07:52:17;;;;;;;19.23;12.85;;;;;;;15.76;38.22;151244.34;5063908;28;20048;-71
2023/04/18 07:54:42;;;;;;;25.90;13.70;;;;;;;15.77;38.35;151246.94;5060476;28;20032;-72
2023/04/18 07:57:08;;;;;;;23.10;13.25;;;;;;;15.87;38.21;151274.00;5056573;28;20045;-70
2023/04/18 07:59:34;;;;;;;23.50;13.23;;;;;;;16.26;37.95;151369.28;5043835;28;20118;-71
2023/04/18 08:01:59;;;;;;;21.90;14.48;;;;;;;15.89;37.67;151277.91;5064403;28;20044;-72
2023/04/18 08:04:25;;;;;;;24.67;13.40;;;;;;;15.91;38.51;151283.03;5050139;28;20025;-72
2023/04/18 08:06:50;;;;;;;24.77;13.13;;;;;;;16.10;37.14;151329.38;5054576;28;20226;-73
2023/04/18 08:09:18;;;;;;;22.42;11.95;;;;;;;16.45;37.24;151416.97;5063760;28;20253;-72
2023/04/18 08:11:43;;;;;;;25.13;13.43;;;;;;;16.63;37.31;151463.34;5065542;28;20088;-73
2023/04/18 08:14:09;;;;;;;25.25;14.05;;;;;;;16.10;37.41;151330.66;5062863;28;20032;-71
2023/04/18 08:16:35;;;;;;;21.40;12.00;;;;;;;15.77;37.69;151248.22;5050846;28;20041;-71
2023/04/18 08:19:01;;;;;;;22.80;12.32;;;;;;;15.49;38.38;151177.41;5063195;28;20215;-71
2023/04/18 08:21:26;;;;;;;24.20;13.15;;;;;;;16.03;37.46;151313.94;5058892;28;20025;-72
2023/04/18 08:23:52;;;;;;;22.48;12.57;;;;;;;16.31;37.60;151383.47;5047605;28;20051;-73
2023/04/18 08:26:18;;;;;;;19.08;13.18;;;;;;;16.25;37.48;151366.69;5060250;28;20033;-71
2023/04/18 08:28:44;;;;;;;19.95;12.77;;;;;;;16.33;37.49;151387.31;5061384;28;20092;-71
2023/04/18 08:31:13;;;;;;;21.52;14.20;;;;;;;16.08;37.68;151325.53;5055819;28;20277;-71
2023/04/18 08:33:40;;;;;;;24.77;13.82;;;;;;;16.25;37.70;151366.69;5062460;28;20565;-72
2023/04/18 08:36:06;;;;;;;21.90;14.30;;;;;;;16.59;37.08;151453.03;5044648;28;20029;-71
2023/04/18 08:38:31;;;;;;;23.27;13.52;;;;;;;16.45;36.96;151416.97;5044746;28;20017;-72
2023/04/18 08:40:57;;;;;;;25.35;12.88;;;;;;;16.51;37.56;151432.41;5044593;28;20075;-72
2023/04/18 08:43:24;;;;;;;18.50;13.27;;;;;;;16.63;36.87;151463.34;5057240;28;20336;-72
2023/04/18 08:45:51;;;;;;;23.60;12.10;;;;;;;16.45;37.22;151418.25;5056093;28;20036;-73
2023/04/18 08:48:17;;;;;;;17.35;12.15;;;;;;;16.54;37.08;151440.13;5044430;28;20035;-73
2023/04/18 08:50:44;;;;;;;17.35;12.27;;;;;;;16.46;37.06;151420.84;5044027;28;20053;-75
2023/04/18 08:53:10;;;;;;;20.27;12.73;;;;;;;16.68;37.19;151474.94;5055542;28;20111;-71
2023/04/18 08:55:36;;;;;;;24.13;13.52;;;;;;;16.64;36.77;151464.63;5059772;28;20040;-71
2023/04/18 08:58:05;;;;;;;23.02;13.60;;;;;;;16.49;37.08;151427.25;5058219;28;20122;-72
2023/04/18 09:00:31;;;;;;;18.73;13.02;;;;;;;16.34;38.17;151389.91;5063283;28;20041;-73
2023/04/18 09:02:57;;;;;;;19.02;13.05;;;;;;;16.52;38.48;151435.00;5063305;28;20032;-71
2023/04/18 09:05:26;;;;;;;20.55;13.43;;;;;;;16.43;38.19;151413.06;5054279;28;20024;-73
2023/04/18 09:07:54;;;;;;;26.75;13.23;;;;;;;16.16;37.12;151346.13;5037177;28;20029;-72
2023/04/18 09:10:33;;;;;;;19.55;11.55;;;;;;;16.13;37.66;151338.41;5043334;28;20034;-71
2023/04/18 09:13:01;;;;;;;18.08;9.60;;;;;;;15.81;37.70;151258.56;5052132;28;20318;-73
2023/04/18 09:15:28;;;;;;;17.33;9.93;;;;;;;16.07;37.88;151322.94;5057032;28;20029;-72
2023/04/18 09:18:00;;;;;;;16.85;10.07;;;;;;;15.77;38.22;151246.94;5045005;28;20025;-72
2023/04/18 09:20:25;;;;;;;;;;;;;;;15.94;38.31;151290.75;5064218;28;20282;-71
2023/04/18 09:22:53;;;;;;;21.83;10.73;;;;;;;15.52;38.72;151186.44;5045957;28;19912;-70
2023/04/18 09:25:37;;;;;;;17.02;9.93;;;;;;;15.24;38.34;151115.63;5056412;28;20163;-71
2023/04/18 09:28:04;;;;;;;15.77;10.20;;;;;;;15.48;38.87;151176.13;5052856;28;20036;-70
2023/04/18 09:30:36;;;;;;;18.05;10.20;;;;;;;15.50;38.66;151180.00;5049725;28;20028;-71
2023/04/18 09:33:04;;;;;;;18.52;10.02;;;;;;;15.65;38.52;151217.34;5047365;28;20033;-71
2023/04/18 09:35:30;;;;;;;18.13;9.80;;;;;;;15.87;38.39;151274.00;5047380;28;20049;-70
2023/04/18 09:37:56;;;;;;;15.07;10.13;;;;;;;15.89;38.13;151277.91;5061192;28;20036;-70
2023/04/18 09:40:22;;;;;;;27.08;10.23;;;;;;;15.91;37.97;151283.03;5063023;28;20025;-71
2023/04/18 09:42:51;;;;;;;14.55;9.90;;;;;;;15.95;38.31;151292.06;5054129;28;20104;-71
2023/04/18 09:45:17;;;;;;;21.27;11.02;;;;;;;15.85;38.16;151267.59;5047393;28;20286;-72
2023/04/18 09:47:43;;;;;;;20.00;9.98;;;;;;;16.01;37.88;151307.50;5063099;28;20096;-70
2023/04/18 09:50:09;;;;;;;16.50;9.65;;;;;;;15.99;37.77;151303.63;5043461;28;20044;-72
2023/04/18 09:52:41;;;;;;;13.68;9.73;;;;;;;15.93;38.03;151288.16;5042313;28;20053;-72
2023/04/18 09:55:09;;;;;;;20.83;9.95;;;;;;;15.95;37.50;151293.34;5053654;28;20360;-72
2023/04/18 09:57:39;;;;;;;15.73;9.18;;;;;;;15.85;38.33;151267.59;5056221;28;20038;-71
2023/04/18 10:00:16;;;;;;;19.95;10.35;;;;;;;15.81;37.88;151258.56;5045700;28;20037;-71
2023/04/18 10:02:52;;;;;;;16.48;10.65;;;;;;;15.59;38.06;151201.88;5062774;28;20041;-71
2023/04/18 10:05:21;;;;;;;17.77;10.43;;;;;;;15.84;38.54;151266.28;5061939;28;20041;-70
2023/04/18 10:07:48;;;;;;;16.85;9.40;;;;;;;15.56;38.27;151194.16;5046421;28;20048;-71
2023/04/18 10:10:14;;;;;;;14.15;9.05;;;;;;;15.35;38.82;151143.97;5042845;28;20172;-73
2023/04/18 10:12:40;;;;;;;16.15;9.65;;;;;;;15.37;39.62;151147.81;5049345;28;20094;-72
2023/04/18 10:15:07;;;;;;;18.02;10.55;;;;;;;15.61;39.58;151207.03;5058671;28;20131;-73
2023/04/18 10:17:44;;;;;;;17.25;10.57;;;;;;;15.02;39.74;151061.59;5042962;28;20029;-71
2023/04/18 10:20:16;;;;;;;19.40;10.43;;;;;;;14.46;41.08;150920.03;5042835;28;20075;-71
2023/04/18 10:22:43;;;;;;;19.48;10.68;;;;;;;14.40;41.81;150904.63;5058278;28;20071;-71
2023/04/18 10:25:08;;;;;;;17.45;9.85;;;;;;;14.71;41.15;150983.13;5051758;28;20057;-71
2023/04/18 10:27:56;;;;;;;17.02;10.73;;;;;;;14.91;40.87;151033.28;5049023;28;20088;-70
2023/04/18 10:30:44;;;;;;;17.23;10.55;;;;;;;14.99;40.79;151053.88;5059169;28;20226;-69
2023/04/18 10:33:31;;;;;;;17.63;11.10;;;;;;;14.89;41.65;151028.13;5046295;28;20034;-71
2023/04/18 10:36:00;;;;;;;16.88;10.43;;;;;;;15.00;41.19;151056.44;5044020;28;20032;-71
2023/04/18 10:38:27;;;;;;;14.45;9.63;;;;;;;15.14;41.33;151091.19;5056116;28;20088;-71
2023/04/18 10:41:11;;;;;;;13.82;10.02;;;;;;;15.05;41.82;151066.72;5047206;28;20044;-70
2023/04/18 10:44:05;;;;;;;14.60;9.93;;;;;;;14.84;41.98;151015.28;5054335;28;20020;-69
2023/04/18 10:46:30;;;;;;;17.73;10.35;;;;;;;14.57;43.02;150948.34;5048791;28;20050;-70
2023/04/18 10:49:15;;;;;;;15.02;10.27;;;;;;;14.99;42.19;151053.88;5051470;28;20036;-70
2023/04/18 10:51:45;;;;;;;14.10;10.32;;;;;;;14.84;42.18;151016.56;5056099;28;20132;-70
2023/04/18 10:54:19;;;;;;;13.07;9.13;;;;;;;14.77;43.04;150998.53;5054206;28;20053;-71
2023/04/18 10:56:52;;;;;;;13.13;9.05;;;;;;;14.91;42.79;151033.28;5049996;28;20071;-71
2023/04/18 10:59:24;;;;;;;12.88;9.35;;;;;;;14.97;42.54;151048.72;5049624;28;20029;-71
2023/04/18 11:01:55;;;;;;;15.10;9.23;;;;;;;15.11;42.66;151083.47;5058821;28;20096;-71
2023/04/18 11:04:22;;;;;;;14.38;9.13;;;;;;;15.08;42.45;151075.75;5050358;28;20064;-71
2023/04/18 11:06:50;;;;;;;11.88;9.30;;;;;;;15.25;41.93;151118.22;5060093;28;20111;-70
2023/04/18 11:09:16;;;;;;;13.63;9.18;;;;;;;15.35;41.82;151142.69;5056308;28;20047;-70
2023/04/18 11:11:43;;;;;;;14.30;8.95;;;;;;;15.17;41.84;151097.63;5062470;28;20025;-70